createdAt,value
2018-02-20T00:01:47.114Z,70.27
2018-02-20T00:05:10.415Z,69.60
2018-02-20T00:08:33.723Z,70.31
2018-02-20T00:11:57.809Z,70.65
2018-02-20T00:15:21.842Z,70.14
2018-02-20T00:18:45.895Z,70.78
2018-02-20T00:22:09.281Z,70.68
2018-02-20T00:25:32.578Z,70.49
2018-02-20T00:28:55.886Z,71.15
2018-02-20T00:32:20.005Z,69.60
2018-02-20T00:35:43.358Z,69.67
2018-02-20T00:39:06.625Z,70.03
2018-02-20T00:42:29.905Z,70.66
2018-02-20T00:45:53.231Z,69.19
2018-02-20T00:49:16.510Z,70.31
2018-02-20T00:52:40.637Z,68.97
2018-02-20T00:56:04.010Z,68.37
2018-02-20T00:59:27.315Z,68.13
2018-02-20T01:02:50.622Z,69.51
2018-02-20T01:06:13.938Z,69.39
2018-02-20T01:09:37.199Z,69.31
2018-02-20T01:13:01.250Z,69.19
2018-02-20T01:16:24.586Z,68.71
2018-02-20T01:19:48.853Z,67.84
2018-02-20T01:23:12.130Z,67.64
2018-02-20T01:26:35.456Z,69.02
2018-02-20T01:29:58.797Z,68.63
2018-02-20T01:33:22.895Z,68.99
2018-02-20T01:36:46.110Z,67.88
2018-02-20T01:40:10.154Z,68.41
2018-02-20T01:43:33.429Z,68.09
2018-02-20T01:46:56.813Z,68.73
2018-02-20T01:50:20.184Z,67.17
2018-02-20T01:53:43.556Z,68.04
2018-02-20T01:57:06.921Z,67.80
2018-02-20T02:00:30.291Z,70.01
2018-02-20T02:03:53.583Z,69.42
2018-02-20T02:07:17.628Z,70.57
2018-02-20T02:10:40.911Z,69.86
2018-02-20T02:14:04.228Z,68.87
2018-02-20T02:17:27.485Z,69.56
2018-02-20T02:20:50.745Z,69.60
2018-02-20T02:24:14.090Z,68.88
2018-02-20T02:27:37.461Z,68.20
2018-02-20T02:31:01.599Z,68.37
2018-02-20T02:34:24.969Z,68.31
2018-02-20T02:37:48.338Z,67.86
2018-02-20T02:41:11.712Z,68.08
2018-02-20T02:44:35.083Z,67.73
2018-02-20T02:47:58.460Z,67.10
2018-02-20T02:51:21.822Z,66.85
2018-02-20T02:54:45.189Z,67.10
2018-02-20T02:58:08.469Z,67.36
2018-02-20T03:01:32.584Z,68.48
2018-02-20T03:04:55.893Z,67.86
2018-02-20T03:08:19.231Z,67.75
2018-02-20T03:11:42.551Z,67.42
2018-02-20T03:15:05.832Z,67.65
2018-02-20T03:18:29.921Z,68.73
2018-02-20T03:21:53.985Z,69.41
2018-02-20T03:25:17.326Z,69.19
2018-02-20T03:28:41.433Z,69.67
2018-02-20T03:32:04.771Z,70.17
2018-02-20T03:35:28.046Z,69.66
2018-02-20T03:38:52.175Z,70.37
2018-02-20T03:42:15.549Z,70.16
2018-02-20T03:45:39.635Z,70.52
2018-02-20T03:49:03.000Z,70.68
2018-02-20T03:52:26.373Z,70.82
2018-02-20T03:55:49.715Z,72.04
2018-02-20T03:59:13.737Z,71.09
2018-02-20T04:02:37.795Z,71.75
2018-02-20T04:06:01.066Z,71.61
2018-02-20T04:09:24.452Z,71.16
2018-02-20T04:12:47.825Z,70.29
2018-02-20T04:16:11.123Z,71.85
2018-02-20T04:19:34.385Z,71.89
2018-02-20T04:22:57.655Z,71.76
2018-02-20T04:26:20.997Z,71.21
2018-02-20T04:29:44.369Z,71.42
2018-02-20T04:33:07.738Z,69.97
2018-02-20T04:36:31.056Z,71.13
2018-02-20T04:39:54.425Z,72.42
2018-02-20T04:43:17.791Z,73.48
2018-02-20T04:46:41.097Z,73.54
2018-02-20T04:50:04.359Z,72.93
2018-02-20T04:53:27.631Z,73.31
2018-02-20T04:56:50.897Z,72.22
2018-02-20T05:00:14.169Z,71.33
2018-02-20T05:03:37.510Z,71.25
2018-02-20T05:07:00.879Z,70.77
2018-02-20T05:10:24.167Z,70.92
2018-02-20T05:13:47.507Z,71.61
2018-02-20T05:17:10.847Z,71.91
2018-02-20T05:20:34.972Z,71.67
2018-02-20T05:23:58.341Z,71.86
2018-02-20T05:27:21.711Z,71.57
2018-02-20T05:30:45.187Z,71.36
2018-02-20T05:34:08.468Z,71.15
2018-02-20T05:37:32.547Z,71.72
2018-02-20T05:40:55.816Z,71.44
2018-02-20T05:44:19.944Z,72.60
2018-02-20T05:47:43.240Z,72.19
2018-02-20T05:51:06.587Z,71.77
2018-02-20T05:54:29.961Z,72.82
2018-02-20T05:57:53.276Z,72.92
2018-02-20T06:01:16.515Z,72.29
2018-02-20T06:04:39.861Z,72.81
2018-02-20T06:08:03.178Z,72.43
2018-02-20T06:11:26.496Z,72.57
2018-02-20T06:14:49.809Z,72.04
2018-02-20T06:18:13.083Z,72.49
2018-02-20T06:21:36.411Z,71.69
2018-02-20T06:24:59.723Z,72.36
2018-02-20T06:28:23.066Z,72.71
2018-02-20T06:31:47.127Z,72.96
2018-02-20T06:35:10.438Z,72.66
2018-02-20T06:38:33.712Z,72.43
2018-02-20T06:41:57.081Z,71.89
2018-02-20T06:45:20.486Z,70.20
2018-02-20T06:48:44.589Z,71.90
2018-02-20T06:52:08.067Z,71.27
2018-02-20T06:55:31.331Z,70.31
2018-02-20T06:58:54.623Z,70.82
2018-02-20T07:02:18.692Z,68.55
2018-02-20T07:05:41.977Z,67.39
2018-02-20T07:09:06.095Z,67.22
2018-02-20T07:12:29.457Z,67.37
2018-02-20T07:15:52.837Z,68.10
2018-02-20T07:19:16.257Z,69.00
2018-02-20T07:22:39.624Z,68.34
2018-02-20T07:26:02.910Z,68.64
2018-02-20T07:29:26.999Z,69.02
2018-02-20T07:32:51.085Z,69.03
2018-02-20T07:36:15.199Z,68.89
2018-02-20T07:39:38.629Z,69.28
2018-02-20T07:43:01.926Z,69.08
2018-02-20T07:46:25.268Z,69.08
2018-02-20T07:49:48.557Z,68.15
2018-02-20T07:53:12.673Z,68.74
2018-02-20T07:56:35.957Z,68.41
2018-02-20T07:59:59.991Z,66.26
2018-02-20T08:03:24.217Z,66.02
2018-02-20T08:06:48.561Z,66.83
2018-02-20T08:10:11.935Z,66.29
2018-02-20T08:13:35.245Z,66.26
2018-02-20T08:16:58.673Z,67.77
2018-02-20T08:20:21.991Z,66.59
2018-02-20T08:23:45.366Z,66.31
2018-02-20T08:27:08.744Z,65.64
2018-02-20T08:30:32.859Z,65.83
2018-02-20T08:33:56.201Z,65.82
2018-02-20T08:37:20.326Z,65.70
2018-02-20T08:40:43.623Z,65.57
2018-02-20T08:44:07.690Z,65.65
2018-02-20T08:47:31.772Z,64.86
2018-02-20T08:50:55.049Z,66.26
2018-02-20T08:54:19.122Z,65.06
2018-02-20T08:57:42.493Z,65.05
2018-02-20T09:01:05.803Z,66.07
2018-02-20T09:04:29.199Z,65.93
2018-02-20T09:07:53.255Z,66.71
2018-02-20T09:11:16.689Z,66.46
2018-02-20T09:14:39.980Z,66.04
2018-02-20T09:18:04.014Z,65.41
2018-02-20T09:21:28.097Z,64.85
2018-02-20T09:24:52.189Z,65.43
2018-02-20T09:28:21.525Z,65.99
2018-02-20T09:31:45.091Z,65.33
2018-02-20T09:35:10.506Z,66.17
2018-02-20T09:38:33.926Z,65.82
2018-02-20T09:41:58.233Z,66.11
2018-02-20T09:45:22.127Z,64.78
2018-02-20T09:48:46.409Z,64.18
2018-02-20T09:52:09.773Z,65.08
2018-02-20T09:55:33.032Z,64.63
2018-02-20T09:58:56.319Z,63.42
2018-02-20T10:02:20.385Z,64.25
2018-02-20T10:05:43.672Z,63.99
2018-02-20T10:09:06.967Z,64.01
2018-02-20T10:12:30.241Z,64.48
2018-02-20T10:15:53.580Z,63.66
2018-02-20T10:19:17.671Z,64.05
2018-02-20T10:22:41.823Z,64.07
2018-02-20T10:26:05.866Z,65.01
2018-02-20T10:29:29.169Z,63.63
2018-02-20T10:32:53.253Z,63.55
2018-02-20T10:36:17.287Z,62.69
2018-02-20T10:39:41.337Z,63.31
2018-02-20T10:43:04.683Z,62.38
2018-02-20T10:46:28.160Z,63.73
2018-02-20T10:49:51.458Z,62.65
2018-02-20T10:53:14.797Z,63.22
2018-02-20T10:56:38.167Z,62.77
2018-02-20T11:00:01.537Z,62.46
2018-02-20T11:03:24.856Z,61.65
2018-02-20T11:06:48.225Z,62.08
2018-02-20T11:10:11.609Z,62.29
2018-02-20T11:13:35.685Z,61.25
2018-02-20T11:16:59.817Z,61.38
2018-02-20T11:20:23.108Z,60.93
2018-02-20T11:23:47.231Z,60.11
2018-02-20T11:27:11.355Z,60.00
2018-02-20T11:30:34.665Z,60.05
2018-02-20T11:33:58.027Z,59.26
2018-02-20T11:45:24.557Z,60.08
2018-02-20T11:48:47.895Z,59.00
2018-02-20T11:52:11.993Z,58.80
2018-02-20T11:55:35.399Z,58.86
2018-02-20T11:58:59.479Z,59.10
2018-02-20T12:02:23.782Z,58.19
2018-02-20T12:05:47.950Z,58.52
2018-02-20T12:09:12.754Z,58.44
2018-02-20T12:12:36.041Z,57.62
2018-02-20T12:16:00.160Z,57.55
2018-02-20T12:19:23.531Z,57.93
2018-02-20T12:22:46.837Z,57.62
2018-02-20T12:26:10.297Z,58.01
2018-02-20T12:29:35.423Z,58.39
2018-02-20T12:32:58.804Z,57.41
2018-02-20T12:36:23.307Z,57.61
2018-02-20T12:39:47.387Z,57.43
2018-02-20T12:43:11.034Z,57.25
2018-02-20T12:46:35.087Z,57.80
2018-02-20T12:49:58.657Z,57.20
2018-02-20T12:53:23.206Z,57.29
2018-02-20T12:56:47.632Z,56.61
2018-02-20T13:00:12.749Z,56.63
2018-02-20T13:03:36.834Z,56.67
2018-02-20T13:07:01.009Z,57.15
2018-02-20T13:10:24.441Z,58.36
2018-02-20T13:13:47.876Z,57.57
2018-02-20T13:17:11.253Z,56.98
2018-02-20T13:20:34.588Z,56.13
2018-02-20T13:23:57.929Z,57.09
2018-02-20T13:27:22.057Z,56.66
2018-02-20T13:30:46.147Z,56.92
2018-02-20T13:34:10.227Z,56.18
2018-02-20T13:37:34.318Z,54.81
2018-02-20T13:40:58.423Z,55.36
2018-02-20T13:44:21.765Z,54.94
2018-02-20T13:47:45.029Z,55.10
2018-02-20T13:51:08.363Z,54.42
2018-02-20T13:54:32.488Z,54.11
2018-02-20T13:57:55.765Z,54.43
2018-02-20T14:01:19.086Z,54.38
2018-02-20T14:04:43.119Z,54.79
2018-02-20T14:08:07.255Z,54.22
2018-02-20T14:11:30.554Z,54.33
2018-02-20T14:14:54.579Z,54.94
2018-02-20T14:18:18.625Z,54.02
2018-02-20T14:21:41.901Z,53.56
2018-02-20T14:25:05.227Z,54.81
2018-02-20T14:28:28.547Z,53.99
2018-02-20T14:31:51.828Z,53.51
2018-02-20T14:35:16.098Z,52.98
2018-02-20T14:38:39.430Z,53.64
2018-02-20T14:42:02.761Z,54.09
2018-02-20T14:45:26.797Z,53.09
2018-02-20T14:48:50.841Z,53.52
2018-02-20T14:52:14.295Z,53.25
2018-02-20T14:55:37.583Z,53.91
2018-02-20T14:59:00.957Z,53.65
2018-02-20T15:02:24.988Z,53.04
2018-02-20T15:05:48.271Z,55.08
2018-02-20T15:09:11.619Z,54.54
2018-02-20T15:12:35.740Z,55.21
2018-02-20T15:15:59.014Z,55.14
2018-02-20T15:19:23.765Z,55.89
2018-02-20T15:22:47.797Z,55.45
2018-02-20T15:26:11.214Z,56.22
2018-02-20T15:29:34.485Z,56.18
2018-02-20T15:32:57.756Z,56.28
2018-02-20T15:36:21.790Z,57.06
2018-02-20T15:39:45.101Z,57.40
2018-02-20T15:43:08.406Z,56.78
2018-02-20T15:46:31.771Z,56.39
2018-02-20T15:49:55.827Z,58.26
2018-02-20T15:53:19.209Z,57.57
2018-02-20T15:56:43.302Z,58.00
2018-02-20T16:00:06.664Z,58.45
2018-02-20T16:03:30.851Z,56.91
2018-02-20T16:06:54.225Z,57.44
2018-02-20T16:10:18.276Z,56.57
2018-02-20T16:13:42.654Z,57.07
2018-02-20T16:17:06.237Z,58.30
2018-02-20T16:20:30.321Z,58.70
2018-02-20T16:23:54.397Z,59.43
2018-02-20T16:27:17.722Z,59.79
2018-02-20T16:30:41.059Z,59.80
2018-02-20T16:34:05.329Z,58.66
2018-02-20T16:37:28.646Z,59.20
2018-02-20T16:40:51.975Z,59.87
2018-02-20T16:44:16.049Z,59.45
2018-02-20T16:47:39.377Z,59.93
2018-02-20T16:51:03.433Z,59.05
2018-02-20T16:54:27.516Z,59.42
2018-02-20T16:57:50.774Z,59.78
2018-02-20T17:01:14.829Z,59.15
2018-02-20T17:04:38.153Z,59.81
2018-02-20T17:08:02.199Z,59.77
2018-02-20T17:11:25.596Z,59.59
2018-02-20T17:14:49.750Z,61.12
2018-02-20T17:18:14.009Z,62.21
2018-02-20T17:21:38.203Z,61.58
2018-02-20T17:25:02.419Z,62.63
2018-02-20T17:28:25.771Z,63.57
2018-02-20T17:31:49.955Z,64.46
2018-02-20T17:35:14.235Z,64.25
2018-02-20T17:38:37.637Z,63.50
2018-02-20T17:42:01.774Z,63.64
2018-02-20T17:45:25.869Z,63.25
2018-02-20T17:48:49.213Z,62.17
2018-02-20T17:52:13.345Z,62.46
2018-02-20T17:55:37.448Z,62.18
2018-02-20T17:59:01.495Z,61.94
2018-02-20T18:02:24.851Z,62.00
2018-02-20T18:05:48.913Z,61.33
2018-02-20T18:09:12.278Z,61.35
2018-02-20T18:12:35.623Z,60.72
2018-02-20T18:15:59.750Z,60.74
2018-02-20T18:19:23.015Z,61.37
2018-02-20T18:22:46.387Z,60.54
2018-02-20T18:26:10.444Z,60.90
2018-02-20T18:29:34.562Z,61.29
2018-02-20T18:32:57.843Z,60.98
2018-02-20T18:36:21.965Z,60.98
2018-02-20T18:39:45.292Z,62.10
2018-02-20T18:43:08.605Z,61.11
2018-02-20T18:46:31.871Z,60.54
2018-02-20T18:49:55.156Z,61.12
2018-02-20T18:53:19.230Z,60.70
2018-02-20T18:56:42.596Z,61.30
2018-02-20T19:00:05.863Z,61.98
2018-02-20T19:03:29.142Z,62.59
2018-02-20T19:06:53.302Z,62.30
2018-02-20T19:10:16.626Z,62.72
2018-02-20T19:13:39.916Z,61.77
2018-02-20T19:17:03.972Z,62.72
2018-02-20T19:20:28.064Z,62.54
2018-02-20T19:23:51.338Z,62.59
2018-02-20T19:27:14.664Z,62.67
2018-02-20T19:30:37.992Z,61.86
2018-02-20T19:34:01.360Z,61.48
2018-02-20T19:37:24.646Z,61.83
2018-02-20T19:40:48.769Z,61.51
2018-02-20T19:44:12.041Z,61.20
2018-02-20T19:47:36.090Z,61.34
2018-02-20T19:50:59.367Z,61.84
2018-02-20T19:54:22.814Z,61.42
2018-02-20T19:57:46.132Z,60.86
2018-02-20T20:01:10.224Z,61.83
2018-02-20T20:04:34.282Z,62.27
2018-02-20T20:07:57.648Z,62.71
2018-02-20T20:11:21.733Z,61.92
2018-02-20T20:14:45.798Z,62.22
2018-02-20T20:18:09.089Z,61.67
2018-02-20T20:21:33.157Z,62.21
2018-02-20T20:24:56.461Z,61.96
2018-02-20T20:28:19.750Z,61.85
2018-02-20T20:31:43.817Z,62.06
2018-02-20T20:35:07.145Z,61.94
2018-02-20T20:38:30.566Z,62.67
2018-02-20T20:41:54.628Z,63.24
2018-02-20T20:45:18.021Z,62.84
2018-02-20T20:48:41.392Z,62.30
2018-02-20T20:52:04.765Z,62.23
2018-02-20T20:55:28.083Z,62.31
2018-02-20T20:58:51.452Z,62.23
2018-02-20T21:02:16.431Z,61.98
2018-02-20T21:05:40.599Z,62.08
2018-02-20T21:09:04.238Z,61.38
2018-02-20T21:12:28.850Z,60.97
2018-02-20T21:15:53.179Z,61.11
2018-02-20T21:19:17.284Z,61.91
2018-02-20T21:22:40.661Z,61.96
2018-02-20T21:26:04.819Z,61.86
2018-02-20T21:29:28.252Z,61.94
2018-02-20T21:32:52.329Z,62.33
2018-02-20T21:36:15.657Z,62.04
2018-02-20T21:39:39.998Z,61.38
2018-02-20T21:43:03.465Z,61.55
2018-02-20T21:46:26.826Z,60.04
2018-02-20T21:49:50.109Z,59.92
2018-02-20T21:53:14.167Z,60.34
2018-02-20T21:56:37.500Z,60.70
2018-02-20T22:00:00.853Z,59.70
2018-02-20T22:03:24.174Z,59.38
2018-02-20T22:06:47.462Z,59.46
2018-02-20T22:10:11.596Z,58.86
2018-02-20T22:13:34.892Z,58.83
2018-02-20T22:16:58.166Z,58.65
2018-02-20T22:20:21.501Z,59.38
2018-02-20T22:23:44.922Z,59.02
2018-02-20T22:27:08.246Z,59.55
2018-02-20T22:30:31.579Z,59.57
2018-02-20T22:33:55.682Z,59.88
2018-02-20T22:37:19.788Z,60.87
2018-02-20T22:40:43.053Z,60.50
2018-02-20T22:44:06.342Z,61.55
2018-02-20T22:47:30.387Z,61.65
2018-02-20T22:50:54.428Z,61.52
2018-02-20T22:54:17.766Z,62.28
2018-02-20T22:57:41.062Z,61.31
2018-02-20T23:01:04.414Z,63.13
2018-02-20T23:04:28.472Z,62.41
2018-02-20T23:07:51.759Z,62.76
2018-02-20T23:11:15.134Z,62.95
2018-02-20T23:20:21.853Z,63.69
2018-02-20T23:23:45.173Z,64.65
2018-02-20T23:27:09.256Z,65.24
2018-02-20T23:30:32.627Z,64.73
2018-02-20T23:33:55.985Z,64.85
2018-02-20T23:37:19.370Z,65.35
2018-02-20T23:40:43.507Z,65.20
2018-02-20T23:44:06.824Z,66.09
2018-02-20T23:47:30.148Z,66.04
2018-02-20T23:54:54.377Z,66.40
2018-02-20T23:58:18.525Z,64.91
